Time;durP1;ratioP1;P1;durP2;ratioP2;P2;SDS_P1;SDS_P2;PMS_P1;PMS_P2;Temp;Humidity;BMP_temperature;BMP_pressure;BME280_temperature;BME280_humidity;BME280_pressure;Samples;Min_cycle;Max_cycle;Signal;HPM_P1;HPM_P2
2022/08/15 00:00:26;;;;;;;;;;;;;;;26.52;51.69;100034.84;1033724;28;649;-67
2022/08/15 00:01:17;;;;;;;;;;;;;;;26.49;51.89;100039.94;1033694;28;729;-67
2022/08/15 00:02:08;;;;;;;;;;;;;;;26.50;52.01;100044.34;1033738;28;659;-67
2022/08/15 00:02:59;;;;;;;;;;;;;;;26.50;51.63;100037.00;1032874;28;650;-67
2022/08/15 00:03:49;;;;;;;;;;;;;;;26.50;51.67;100037.00;1029307;28;626;-69
2022/08/15 00:04:40;;;;;;;;;;;;;;;26.49;51.66;100032.56;1029319;28;626;-67
2022/08/15 00:05:30;;;;;;;;;;;;;;;26.51;51.80;100032.34;1033896;28;1890;-67
2022/08/15 00:06:21;;;;;;;;;;;;;;;26.49;51.89;100043.50;1033359;28;665;-67
2022/08/15 00:07:11;;;;;;;;;;;;;;;26.48;51.89;100039.09;1033700;28;661;-67
2022/08/15 00:08:02;;;;;;;;;;;;;;;26.49;51.79;100035.31;1033412;28;1246;-67
2022/08/15 00:08:52;;;;;;;;;;;;;;;26.48;51.72;100030.91;1033772;28;588;-66
2022/08/15 00:09:43;;;;;;;;;;;;;;;26.48;51.90;100041.84;1033419;28;666;-67
2022/08/15 00:10:33;;;;;;;;;;;;;;;26.49;51.72;100031.75;1033615;28;621;-67
2022/08/15 00:11:23;;;;;;;;;;;;;;;26.49;51.84;100045.41;1033882;28;629;-67
2022/08/15 00:12:14;;;;;;;;;;;;;;;26.47;51.86;100040.16;1033303;28;716;-67
2022/08/15 00:13:04;;;;;;;;;;;;;;;26.45;51.77;100031.34;1033967;28;684;-67
2022/08/15 00:13:55;;;;;;;;;;;;;;;26.47;51.88;100042.06;1033748;28;712;-67
2022/08/15 00:14:45;;;;;;;;;;;;;;;26.46;51.92;100033.03;1033629;28;732;-67
2022/08/15 00:15:35;;;;;;;;;;;;;;;26.43;52.01;100033.47;1033657;28;623;-67
2022/08/15 00:16:26;;;;;;;;;;;;;;;26.43;51.80;100030.72;1040543;28;646;-67
2022/08/15 00:17:16;;;;;;;;;;;;;;;26.43;51.97;100035.34;1041799;28;693;-67
2022/08/15 00:18:07;;;;;;;;;;;;;;;26.44;51.81;100032.41;1039629;28;659;-67
2022/08/15 00:18:57;;;;;;;;;;;;;;;26.41;51.86;100032.84;1041832;28;673;-67
2022/08/15 00:19:48;;;;;;;;;;;;;;;26.38;51.91;100033.28;1041755;28;627;-67
2022/08/15 00:20:39;;;;;;;;;;;;;;;26.40;51.92;100030.31;1041793;28;626;-67
2022/08/15 00:21:30;;;;;;;;;;;;;;;26.40;51.98;100028.44;1040783;28;643;-67
2022/08/15 00:22:20;;;;;;;;;;;;;;;26.41;52.04;100032.00;1041698;28;606;-67
2022/08/15 00:23:11;;;;;;;;;;;;;;;26.42;52.07;100033.69;1041744;28;740;-67
2022/08/15 00:24:01;;;;;;;;;;;;;;;26.43;51.86;100040.81;1041778;28;630;-67
2022/08/15 00:24:52;;;;;;;;;;;;;;;26.41;52.08;100027.38;1041687;28;1088;-67
2022/08/15 00:25:42;;;;;;;;;;;;;;;26.41;51.88;100027.38;1040660;28;1898;-67
2022/08/15 00:26:34;;;;;;;;;;;;;;;26.42;51.87;100029.06;1041714;28;696;-67
2022/08/15 00:27:24;;;;;;;;;;;;;;;26.42;51.83;100029.06;1040620;28;642;-67
2022/08/15 00:28:15;;;;;;;;;;;;;;;26.42;52.01;100031.78;1039814;28;662;-67
2022/08/15 00:29:06;;;;;;;;;;;;;;;26.41;52.06;100027.38;1040919;28;647;-67
2022/08/15 00:30:02;;;;;;;;;;;;;;;26.40;52.09;100031.16;1040596;28;623;-67
2022/08/15 00:30:53;;;;;;;;;;;;;;;26.38;52.09;100030.56;1040587;28;650;-67
2022/08/15 00:31:43;;;;;;;;;;;;;;;26.39;51.90;100028.66;1041202;28;618;-67
2022/08/15 00:32:36;;;;;;;;;;;;;;;26.41;51.55;100027.38;1041764;28;636;-67
2022/08/15 00:33:28;;;;;;;;;;;;;;;26.39;51.92;100024.03;1040671;28;642;-66
2022/08/15 00:34:19;;;;;;;;;;;;;;;26.39;52.09;100023.19;1040710;28;658;-67
2022/08/15 00:35:36;;;;;;;;;;;;;;;26.39;51.62;100017.72;1041697;28;632;-66
2022/08/15 00:36:20;;;;;;;;;;;;;;;26.38;52.11;100014.16;1039436;28;631;-66
2022/08/15 00:37:10;;;;;;;;;;;;;;;26.36;51.96;100010.81;1040467;28;627;-67
2022/08/15 00:38:01;;;;;;;;;;;;;;;26.34;52.18;100015.66;1041896;28;661;-67
2022/08/15 00:38:51;;;;;;;;;;;;;;;26.33;52.14;100019.47;1041305;28;693;-66
2022/08/15 00:39:41;;;;;;;;;;;;;;;26.33;52.18;100019.47;1041320;28;619;-66
2022/08/15 00:41:39;;;;;;;;;;;;;;;26.34;52.24;100012.91;1041681;28;652;-66
2022/08/15 00:41:42;;;;;;;;;;;;;;;26.35;51.98;100020.06;1039441;28;1566;-66
2022/08/15 00:42:33;;;;;;;;;;;;;;;26.35;51.95;100013.75;1041765;28;680;-66
2022/08/15 00:43:24;;;;;;;;;;;;;;;26.34;52.20;100015.66;1040594;28;697;-66
2022/08/15 00:44:15;;;;;;;;;;;;;;;26.33;52.26;100011.28;1040608;28;642;-66
2022/08/15 00:45:05;;;;;;;;;;;;;;;26.33;52.39;100005.81;1042543;28;658;-66
2022/08/15 00:45:56;;;;;;;;;;;;;;;26.32;52.27;100009.59;1042642;28;681;-66
2022/08/15 00:46:46;;;;;;;;;;;;;;;26.34;52.08;100009.34;1040509;28;698;-66
2022/08/15 00:47:36;;;;;;;;;;;;;;;26.30;51.96;100008.97;1041635;28;618;-66
2022/08/15 00:48:42;;;;;;;;;;;;;;;26.32;52.09;100000.56;1041653;28;677;-66
2022/08/15 00:49:33;;;;;;;;;;;;;;;26.33;52.20;100005.81;1042547;28;677;-66
2022/08/15 00:50:23;;;;;;;;;;;;;;;26.32;52.15;100009.59;1042595;28;633;-66
2022/08/15 00:51:14;;;;;;;;;;;;;;;26.32;52.19;100000.56;1041424;28;658;-67
2022/08/15 00:52:04;;;;;;;;;;;;;;;26.30;52.14;100006.25;1042537;28;685;-66
2022/08/15 00:52:55;;;;;;;;;;;;;;;26.30;52.38;99998.06;1042553;28;712;-66
2022/08/15 00:53:45;;;;;;;;;;;;;;;26.30;52.11;99998.06;1042616;28;669;-67
2022/08/15 00:54:35;;;;;;;;;;;;;;;26.30;52.15;99998.06;1042563;28;629;-66
2022/08/15 00:55:27;;;;;;;;;;;;;;;26.30;52.22;99997.22;1042476;28;692;-66
2022/08/15 00:56:17;;;;;;;;;;;;;;;26.28;52.13;99998.25;1041390;28;670;-67
2022/08/15 00:57:08;;;;;;;;;;;;;;;26.29;52.36;100007.31;1042589;28;748;-66
2022/08/15 00:57:58;;;;;;;;;;;;;;;26.29;52.45;99996.38;1042505;28;624;-66
2022/08/15 00:58:48;;;;;;;;;;;;;;;26.28;52.25;99991.94;1042571;28;625;-66
2022/08/15 00:59:40;;;;;;;;;;;;;;;26.29;52.25;99996.38;1042586;28;657;-66
2022/08/15 01:00:30;;;;;;;;;;;;;;;26.29;52.27;99996.38;1041322;28;774;-66
2022/08/15 01:01:21;;;;;;;;;;;;;;;26.29;52.15;99999.13;1042530;28;618;-66
2022/08/15 01:02:12;;;;;;;;;;;;;;;26.29;52.21;99993.66;1041837;28;681;-66
2022/08/15 01:03:02;;;;;;;;;;;;;;;26.28;51.97;99994.69;1042602;28;652;-66
2022/08/15 01:03:53;;;;;;;;;;;;;;;26.28;52.43;99994.69;1042486;28;693;-66
2022/08/15 01:04:44;;;;;;;;;;;;;;;26.27;52.19;99987.53;1042598;28;673;-66
2022/08/15 01:05:34;;;;;;;;;;;;;;;26.27;52.42;99993.84;1041417;28;1914;-66
2022/08/15 01:06:25;;;;;;;;;;;;;;;26.25;52.46;99987.75;1042416;28;645;-66
2022/08/15 01:07:15;;;;;;;;;;;;;;;26.26;52.34;99991.31;1042505;28;630;-66
2022/08/15 01:08:05;;;;;;;;;;;;;;;26.26;52.38;99991.31;1042289;28;1288;-67
2022/08/15 01:08:57;;;;;;;;;;;;;;;26.24;52.26;99990.72;1042416;28;678;-66
2022/08/15 01:09:49;;;;;;;;;;;;;;;26.25;52.53;99986.91;1040175;28;648;-67
2022/08/15 01:10:39;;;;;;;;;;;;;;;26.25;52.44;99986.91;1041842;28;655;-66
2022/08/15 01:11:30;;;;;;;;;;;;;;;26.24;52.23;99980.63;1042524;28;590;-66
2022/08/15 01:12:20;;;;;;;;;;;;;;;26.23;52.45;99987.13;1041223;28;630;-66
2022/08/15 01:13:10;;;;;;;;;;;;;;;26.23;52.26;99976.22;1040461;28;817;-67
2022/08/15 01:14:01;;;;;;;;;;;;;;;26.22;52.52;99979.16;1041073;28;690;-66
2022/08/15 01:14:51;;;;;;;;;;;;;;;26.23;52.45;99975.38;1041517;28;626;-66
2022/08/15 01:15:42;;;;;;;;;;;;;;;26.23;52.33;99975.38;1042522;28;693;-67
2022/08/15 01:16:32;;;;;;;;;;;;;;;26.22;52.31;99976.44;1033066;28;604;-66
2022/08/15 01:17:23;;;;;;;;;;;;;;;26.21;52.55;99975.59;1033290;28;729;-67
2022/08/15 01:18:13;;;;;;;;;;;;;;;26.21;52.56;99980.22;1033076;28;678;-67
2022/08/15 01:19:03;;;;;;;;;;;;;;;26.20;52.44;99973.91;1033135;28;683;-67
2022/08/15 01:19:54;;;;;;;;;;;;;;;26.21;52.34;99972.03;1033285;28;701;-65
2022/08/15 01:20:44;;;;;;;;;;;;;;;26.21;52.36;99972.03;1033134;28;626;-67
2022/08/15 01:21:38;;;;;;;;;;;;;;;26.21;52.47;99977.50;1033193;28;645;-67
2022/08/15 01:22:28;;;;;;;;;;;;;;;26.21;52.42;99972.88;1033759;28;677;-67
2022/08/15 01:23:19;;;;;;;;;;;;;;;26.21;52.55;99972.88;1032725;28;642;-67
2022/08/15 01:24:09;;;;;;;;;;;;;;;26.20;52.63;99973.09;1033119;28;627;-67
2022/08/15 01:25:00;;;;;;;;;;;;;;;26.17;52.41;99965.34;1033175;28;678;-67
2022/08/15 01:25:50;;;;;;;;;;;;;;;26.18;52.58;99969.75;1033329;28;701;-67
2022/08/15 01:26:41;;;;;;;;;;;;;;;26.18;52.43;99972.47;1033178;28;698;-67
2022/08/15 01:27:31;;;;;;;;;;;;;;;26.20;52.44;99965.72;1033851;28;631;-67
2022/08/15 01:28:23;;;;;;;;;;;;;;;26.18;52.41;99967.84;1033135;28;698;-67
2022/08/15 01:29:13;;;;;;;;;;;;;;;26.18;52.66;99961.53;1034312;28;729;-67
2022/08/15 01:30:04;;;;;;;;;;;;;;;26.18;52.45;99972.47;1032861;28;638;-67
2022/08/15 01:30:54;;;;;;;;;;;;;;;26.16;52.48;99969.13;1033470;28;630;-67
2022/08/15 01:31:44;;;;;;;;;;;;;;;26.17;52.49;99965.34;1033770;28;650;-67
2022/08/15 01:32:35;;;;;;;;;;;;;;;26.16;52.53;99975.41;1033178;28;635;-67
2022/08/15 01:33:25;;;;;;;;;;;;;;;26.15;52.53;99975.66;1032996;28;851;-67
2022/08/15 01:34:16;;;;;;;;;;;;;;;26.14;52.55;99974.84;1033200;28;654;-67
2022/08/15 01:35:07;;;;;;;;;;;;;;;26.16;52.68;99985.50;1033673;28;678;-67
2022/08/15 01:35:59;;;;;;;;;;;;;;;26.16;52.58;99980.03;1033252;28;650;-67
2022/08/15 01:36:50;;;;;;;;;;;;;;;26.17;52.70;99981.72;1033719;28;681;-67
2022/08/15 01:37:40;;;;;;;;;;;;;;;26.16;52.52;99969.13;1033243;28;773;-67
2022/08/15 01:38:31;;;;;;;;;;;;;;;26.14;52.61;99979.47;1033179;28;683;-67
2022/08/15 01:39:21;;;;;;;;;;;;;;;26.12;52.58;99970.66;1032865;28;681;-67
2022/08/15 01:40:12;;;;;;;;;;;;;;;26.13;52.70;99975.06;1033045;28;658;-67
2022/08/15 01:41:02;;;;;;;;;;;;;;;26.14;52.54;99976.72;1032908;28;689;-67
2022/08/15 01:41:52;;;;;;;;;;;;;;;26.14;52.64;99971.25;1033323;28;595;-67
2022/08/15 01:42:43;;;;;;;;;;;;;;;26.13;52.67;99969.59;1033702;28;686;-67
2022/08/15 01:43:33;;;;;;;;;;;;;;;26.13;52.83;99969.59;1033048;28;615;-67
2022/08/15 01:44:24;;;;;;;;;;;;;;;26.11;52.71;99967.06;1032870;28;760;-67
2022/08/15 01:45:14;;;;;;;;;;;;;;;26.11;52.62;99966.25;1033940;28;721;-65
2022/08/15 01:46:04;;;;;;;;;;;;;;;26.10;52.62;99970.88;1029226;28;655;-67
2022/08/15 01:46:55;;;;;;;;;;;;;;;26.11;52.72;99966.25;1030429;28;706;-67
2022/08/15 01:47:46;;;;;;;;;;;;;;;26.11;52.71;99966.25;1033914;28;647;-67
2022/08/15 01:48:36;;;;;;;;;;;;;;;26.09;52.82;99961.00;1029300;28;625;-68
2022/08/15 01:49:26;;;;;;;;;;;;;;;26.09;52.62;99958.28;1029339;28;665;-67
2022/08/15 01:50:17;;;;;;;;;;;;;;;26.10;52.77;99964.56;1034152;28;662;-67
2022/08/15 01:51:07;;;;;;;;;;;;;;;26.09;52.78;99962.91;1033028;28;626;-67
2022/08/15 01:51:58;;;;;;;;;;;;;;;26.08;52.73;99959.31;1032642;28;626;-67
2022/08/15 01:52:50;;;;;;;;;;;;;;;26.08;52.70;99958.50;1033041;28;713;-67
2022/08/15 01:53:40;;;;;;;;;;;;;;;26.06;52.96;99960.59;1033596;28;590;-67
2022/08/15 01:54:32;;;;;;;;;;;;;;;26.07;52.78;99956.81;1033044;28;705;-67
2022/08/15 01:55:23;;;;;;;;;;;;;;;26.08;52.68;99953.03;1033629;28;717;-65
2022/08/15 01:56:13;;;;;;;;;;;;;;;26.08;52.73;99961.22;1032893;28;685;-67
2022/08/15 01:57:04;;;;;;;;;;;;;;;26.06;52.92;99958.72;1032853;28;642;-65
2022/08/15 01:57:54;;;;;;;;;;;;;;;26.08;52.85;99958.50;1033285;28;634;-68
2022/08/15 01:58:45;;;;;;;;;;;;;;;26.07;52.59;99949.47;1033073;28;604;-65
2022/08/15 01:59:35;;;;;;;;;;;;;;;26.08;52.82;99961.22;1033602;28;669;-67
2022/08/15 02:00:26;;;;;;;;;;;;;;;26.07;52.73;99949.47;1032884;28;618;-66
2022/08/15 02:01:16;;;;;;;;;;;;;;;26.08;52.66;99950.28;1033029;28;622;-66
2022/08/15 02:02:06;;;;;;;;;;;;;;;26.07;52.77;99951.34;1032984;28;689;-66
2022/08/15 02:02:57;;;;;;;;;;;;;;;26.05;52.68;99951.56;1033163;28;678;-66
2022/08/15 02:03:47;;;;;;;;;;;;;;;26.06;52.81;99944.22;1032697;28;623;-67
2022/08/15 02:04:38;;;;;;;;;;;;;;;26.04;52.73;99949.06;1033235;28;686;-66
2022/08/15 02:05:28;;;;;;;;;;;;;;;26.03;52.98;99950.94;1033935;28;1899;-66
2022/08/15 02:06:20;;;;;;;;;;;;;;;26.04;52.84;99949.06;1032926;28;697;-67
2022/08/15 02:07:11;;;;;;;;;;;;;;;26.05;53.03;99950.72;1033612;28;677;-66
2022/08/15 02:08:01;;;;;;;;;;;;;;;26.05;52.78;99953.47;1032500;28;1127;-66
2022/08/15 02:08:52;;;;;;;;;;;;;;;26.04;52.94;99954.53;1029230;28;693;-66
2022/08/15 02:09:42;;;;;;;;;;;;;;;26.04;52.81;99952.63;1029247;28;669;-67
2022/08/15 02:10:33;;;;;;;;;;;;;;;26.03;52.85;99952.84;1030223;28;649;-67
2022/08/15 02:11:24;;;;;;;;;;;;;;;26.04;52.98;99946.31;1033974;28;658;-66
2022/08/15 02:12:14;;;;;;;;;;;;;;;26.03;53.00;99953.69;1033548;28;658;-67
2022/08/15 02:13:04;;;;;;;;;;;;;;;26.04;53.09;99957.25;1032956;28;626;-67
2022/08/15 02:13:56;;;;;;;;;;;;;;;26.03;53.04;99956.41;1033053;28;717;-66
2022/08/15 02:14:47;;;;;;;;;;;;;;;26.03;52.89;99967.34;1033522;28;622;-66
2022/08/15 02:15:37;;;;;;;;;;;;;;;26.03;52.86;99964.59;1032741;28;623;-66
2022/08/15 02:16:29;;;;;;;;;;;;;;;26.02;52.83;99979.31;1040791;28;661;-66
2022/08/15 02:17:19;;;;;;;;;;;;;;;26.03;52.97;99991.91;1041608;28;646;-66
2022/08/15 02:18:09;;;;;;;;;;;;;;;26.04;52.96;99998.22;1042271;28;630;-66
2022/08/15 02:19:00;;;;;;;;;;;;;;;26.01;52.87;99996.75;1040068;28;852;-66
2022/08/15 02:19:50;;;;;;;;;;;;;;;26.03;52.77;100002.00;1042294;28;578;-66
2022/08/15 02:20:41;;;;;;;;;;;;;;;26.01;52.80;99998.66;1040372;28;697;-67
2022/08/15 02:21:32;;;;;;;;;;;;;;;26.02;52.98;99992.13;1040732;28;669;-67
2022/08/15 02:22:22;;;;;;;;;;;;;;;26.02;52.93;99989.41;1041150;28;718;-66
2022/08/15 02:23:12;;;;;;;;;;;;;;;26.02;52.95;99989.41;1042137;28;634;-66
2022/08/15 02:24:03;;;;;;;;;;;;;;;26.00;53.04;99980.59;1042304;28;724;-66
2022/08/15 02:24:53;;;;;;;;;;;;;;;26.01;53.01;99977.63;1041689;28;676;-66
2022/08/15 02:25:44;;;;;;;;;;;;;;;26.00;53.07;99980.59;1041550;28;1910;-66
2022/08/15 02:26:35;;;;;;;;;;;;;;;26.01;53.02;99988.56;1040086;28;634;-66
2022/08/15 02:27:26;;;;;;;;;;;;;;;26.00;53.06;99986.88;1041016;28;745;-66
2022/08/15 02:28:16;;;;;;;;;;;;;;;26.00;52.83;99994.25;1040013;28;627;-66
2022/08/15 02:29:07;;;;;;;;;;;;;;;26.01;52.95;99987.72;1041331;28;645;-66
2022/08/15 02:29:57;;;;;;;;;;;;;;;26.00;53.11;99986.88;1041209;28;634;-66
2022/08/15 02:30:48;;;;;;;;;;;;;;;26.00;52.85;99991.50;1039886;28;642;-66
2022/08/15 02:31:38;;;;;;;;;;;;;;;26.00;52.90;99991.50;1040992;28;724;-66
2022/08/15 02:32:28;;;;;;;;;;;;;;;25.98;53.06;99991.72;1039799;28;837;-66
2022/08/15 02:33:19;;;;;;;;;;;;;;;25.97;53.17;99987.34;1040271;28;718;-66
2022/08/15 02:34:10;;;;;;;;;;;;;;;25.97;53.04;99979.16;1042028;28;583;-66
2022/08/15 02:35:00;;;;;;;;;;;;;;;25.98;53.05;99980.00;1041701;28;723;-66
2022/08/15 02:35:51;;;;;;;;;;;;;;;25.99;53.12;99978.91;1041104;28;665;-66
2022/08/15 02:36:41;;;;;;;;;;;;;;;25.97;52.95;99965.50;1042195;28;618;-66
2022/08/15 02:37:32;;;;;;;;;;;;;;;25.97;52.86;99970.13;1042200;28;701;-66
2022/08/15 02:38:22;;;;;;;;;;;;;;;25.96;53.04;99963.00;1040048;28;638;-66
2022/08/15 02:39:12;;;;;;;;;;;;;;;25.96;53.03;99966.56;1042160;28;749;-66
2022/08/15 02:40:03;;;;;;;;;;;;;;;25.94;53.17;99969.50;1040047;28;623;-66
2022/08/15 02:40:53;;;;;;;;;;;;;;;25.95;53.03;99959.44;1042306;28;697;-67
2022/08/15 02:41:44;;;;;;;;;;;;;;;25.94;53.15;99955.88;1042136;28;590;-66
2022/08/15 02:42:36;;;;;;;;;;;;;;;25.94;53.09;99964.06;1041036;28;634;-66
2022/08/15 02:43:27;;;;;;;;;;;;;;;25.94;53.01;99966.78;1039761;28;611;-66
2022/08/15 02:44:20;;;;;;;;;;;;;;;25.95;53.05;99970.34;1040995;28;662;-66
2022/08/15 02:45:10;;;;;;;;;;;;;;;25.96;53.10;99973.91;1041186;28;576;-66
2022/08/15 02:46:01;;;;;;;;;;;;;;;25.94;53.24;99980.44;1042224;28;689;-66
2022/08/15 02:46:51;;;;;;;;;;;;;;;25.94;53.09;99974.97;1042078;28;622;-66
2022/08/15 02:47:43;;;;;;;;;;;;;;;25.94;53.17;99971.41;1042128;28;669;-66
2022/08/15 02:48:34;;;;;;;;;;;;;;;25.94;53.16;99971.41;1040818;28;634;-66
2022/08/15 02:49:26;;;;;;;;;;;;;;;25.94;53.00;99974.97;1040969;28;646;-66
2022/08/15 02:50:17;;;;;;;;;;;;;;;25.96;53.10;99968.47;1040430;28;841;-66
2022/08/15 02:51:08;;;;;;;;;;;;;;;25.94;53.13;99969.50;1042150;28;674;-66
2022/08/15 02:51:58;;;;;;;;;;;;;;;25.93;53.07;99965.09;1041044;28;820;-66
2022/08/15 02:52:49;;;;;;;;;;;;;;;25.95;53.10;99962.16;1042135;28;594;-66
2022/08/15 02:53:40;;;;;;;;;;;;;;;25.94;53.11;99965.94;1040903;28;639;-66
2022/08/15 02:54:30;;;;;;;;;;;;;;;25.94;53.17;99961.31;1042010;28;637;-66
2022/08/15 02:55:20;;;;;;;;;;;;;;;25.94;53.12;99964.06;1042181;28;673;-66
2022/08/15 02:56:11;;;;;;;;;;;;;;;25.94;52.94;99958.59;1042102;28;681;-66
2022/08/15 02:57:01;;;;;;;;;;;;;;;25.94;53.16;99961.31;1041529;28;756;-66
2022/08/15 02:57:52;;;;;;;;;;;;;;;25.93;52.96;99965.09;1042074;28;610;-66
2022/08/15 02:58:42;;;;;;;;;;;;;;;25.93;53.01;99959.66;1041943;28;641;-65
2022/08/15 02:59:33;;;;;;;;;;;;;;;25.92;53.14;99965.31;1042116;28;542;-66
2022/08/15 03:00:23;;;;;;;;;;;;;;;25.92;53.01;99960.72;1042018;28;689;-66
2022/08/15 03:01:13;;;;;;;;;;;;;;;25.92;53.22;99963.44;1042150;28;634;-66
2022/08/15 03:02:04;;;;;;;;;;;;;;;25.92;53.07;99962.59;1042102;28;641;-66
2022/08/15 03:02:55;;;;;;;;;;;;;;;25.92;53.07;99951.69;1042005;28;626;-66
2022/08/15 03:03:45;;;;;;;;;;;;;;;25.91;53.26;99955.47;1040882;28;634;-67
2022/08/15 03:04:38;;;;;;;;;;;;;;;25.92;53.07;99954.41;1039650;28;646;-67
2022/08/15 03:05:29;;;;;;;;;;;;;;;25.90;53.03;99954.63;1040439;28;1961;-67
2022/08/15 03:06:20;;;;;;;;;;;;;;;25.91;53.11;99947.28;1040943;28;635;-67
2022/08/15 03:07:10;;;;;;;;;;;;;;;25.90;53.03;99951.06;1041969;28;641;-67
2022/08/15 03:08:00;;;;;;;;;;;;;;;25.91;53.13;99952.72;1041659;28;1248;-67
2022/08/15 03:08:51;;;;;;;;;;;;;;;25.91;53.13;99948.13;1041717;28;716;-67
2022/08/15 03:09:43;;;;;;;;;;;;;;;25.90;53.19;99943.72;1040894;28;623;-67
2022/08/15 03:10:33;;;;;;;;;;;;;;;25.90;53.02;99946.44;1039853;28;701;-67
2022/08/15 03:11:25;;;;;;;;;;;;;;;25.91;53.17;99942.66;1042050;28;689;-67
2022/08/15 03:12:16;;;;;;;;;;;;;;;25.90;53.03;99932.78;1040907;28;626;-67
2022/08/15 03:13:07;;;;;;;;;;;;;;;25.89;53.31;99944.75;1040890;28;618;-67
2022/08/15 03:13:58;;;;;;;;;;;;;;;25.89;53.29;99941.19;1040914;28;678;-67
2022/08/15 03:14:49;;;;;;;;;;;;;;;25.89;53.24;99943.94;1040849;28;670;-67
2022/08/15 03:15:40;;;;;;;;;;;;;;;25.88;53.34;99939.53;1040064;28;632;-67
2022/08/15 03:16:30;;;;;;;;;;;;;;;25.89;53.09;99946.66;1038171;28;657;-67
2022/08/15 03:17:21;;;;;;;;;;;;;;;25.88;53.32;99945.81;1037933;28;1152;-67
2022/08/15 03:18:11;;;;;;;;;;;;;;;25.89;53.15;99947.50;1037991;28;664;-67
2022/08/15 03:19:02;;;;;;;;;;;;;;;25.88;53.27;99951.28;1037508;28;654;-67
2022/08/15 03:19:53;;;;;;;;;;;;;;;25.88;53.26;99945.81;1039169;28;756;-67
2022/08/15 03:20:45;;;;;;;;;;;;;;;25.89;53.39;99946.66;1037868;28;725;-67
2022/08/15 03:21:36;;;;;;;;;;;;;;;25.87;53.16;99943.31;1038039;28;661;-66
2022/08/15 03:22:30;;;;;;;;;;;;;;;25.89;53.26;99941.19;1038366;28;701;-66
2022/08/15 03:23:20;;;;;;;;;;;;;;;25.87;53.29;99944.13;1038469;28;626;-66
2022/08/15 03:24:11;;;;;;;;;;;;;;;25.86;53.59;99941.63;1038215;28;1013;-66
2022/08/15 03:25:01;;;;;;;;;;;;;;;25.85;53.26;99935.34;1038209;28;665;-66
2022/08/15 03:25:51;;;;;;;;;;;;;;;25.86;53.32;99945.19;1037999;28;1973;-66
2022/08/15 03:26:46;;;;;;;;;;;;;;;25.86;53.51;99942.47;1037907;28;673;-66
2022/08/15 03:27:36;;;;;;;;;;;;;;;25.85;53.16;99945.41;1037879;28;622;-66
2022/08/15 03:28:28;;;;;;;;;;;;;;;25.84;53.36;99944.59;1037871;28;682;-66
2022/08/15 03:29:19;;;;;;;;;;;;;;;25.85;53.23;99951.72;1037989;28;607;-66
2022/08/15 03:30:09;;;;;;;;;;;;;;;25.84;53.41;99955.50;1037835;28;662;-66
2022/08/15 03:30:59;;;;;;;;;;;;;;;25.85;53.30;99953.59;1037997;28;665;-66
2022/08/15 03:31:50;;;;;;;;;;;;;;;25.83;53.30;99956.56;1037916;28;665;-66
2022/08/15 03:32:40;;;;;;;;;;;;;;;25.84;53.31;99955.50;1037893;28;717;-66
2022/08/15 03:33:31;;;;;;;;;;;;;;;25.85;53.28;99951.72;1037457;28;618;-67
2022/08/15 03:34:22;;;;;;;;;;;;;;;25.85;53.28;99954.44;1037804;28;626;-66
2022/08/15 03:35:13;;;;;;;;;;;;;;;25.85;53.42;99946.25;1037901;28;630;-66
2022/08/15 03:36:03;;;;;;;;;;;;;;;25.84;53.22;99944.59;1037839;28;685;-65
2022/08/15 03:36:54;;;;;;;;;;;;;;;25.83;53.23;99945.63;1038974;28;614;-66
2022/08/15 03:37:44;;;;;;;;;;;;;;;25.84;53.43;99944.59;1037861;28;614;-65
2022/08/15 03:38:35;;;;;;;;;;;;;;;25.85;53.33;99946.25;1037711;28;630;-66
2022/08/15 03:39:26;;;;;;;;;;;;;;;25.84;53.48;99950.03;1037936;28;707;-67
2022/08/15 03:40:16;;;;;;;;;;;;;;;25.84;53.34;99951.94;1037771;28;704;-67
2022/08/15 03:41:08;;;;;;;;;;;;;;;25.82;53.32;99954.03;1037965;28;677;-67
2022/08/15 03:41:59;;;;;;;;;;;;;;;25.81;53.48;99949.63;1037945;28;676;-67
2022/08/15 03:42:49;;;;;;;;;;;;;;;25.81;53.51;99955.94;1037869;28;681;-67
2022/08/15 03:43:40;;;;;;;;;;;;;;;25.82;53.29;99954.03;1037785;28;692;-67
2022/08/15 03:44:30;;;;;;;;;;;;;;;25.82;53.47;99946.69;1037720;28;663;-67
2022/08/15 03:45:21;;;;;;;;;;;;;;;25.81;53.45;99945.00;1037910;28;625;-67
2022/08/15 03:46:11;;;;;;;;;;;;;;;25.81;53.02;99945.00;1038857;28;641;-67
2022/08/15 03:47:02;;;;;;;;;;;;;;;25.82;53.43;99943.97;1037828;28;855;-67
2022/08/15 03:47:52;;;;;;;;;;;;;;;25.80;53.40;99943.34;1038390;28;712;-67
2022/08/15 03:48:42;;;;;;;;;;;;;;;25.81;53.39;99947.75;1037763;28;660;-67
2022/08/15 03:49:33;;;;;;;;;;;;;;;25.81;53.46;99945.00;1038841;28;618;-67
2022/08/15 03:50:23;;;;;;;;;;;;;;;25.79;53.47;99949.88;1038239;28;634;-67
2022/08/15 03:51:15;;;;;;;;;;;;;;;25.79;53.53;99949.88;1038101;28;623;-67
2022/08/15 03:52:06;;;;;;;;;;;;;;;25.81;53.51;99958.66;1037901;28;651;-67
2022/08/15 03:52:56;;;;;;;;;;;;;;;25.80;53.55;99959.72;1037746;28;693;-67
2022/08/15 03:53:47;;;;;;;;;;;;;;;25.81;53.29;99960.56;1037834;28;641;-67
2022/08/15 03:54:37;;;;;;;;;;;;;;;25.80;53.43;99959.72;1037730;28;678;-67
2022/08/15 03:55:28;;;;;;;;;;;;;;;25.78;53.44;99959.13;1037925;28;665;-67
2022/08/15 03:56:18;;;;;;;;;;;;;;;25.79;53.39;99958.06;1037835;28;653;-67
2022/08/15 03:57:09;;;;;;;;;;;;;;;25.79;53.43;99963.53;1037741;28;634;-67
2022/08/15 03:57:59;;;;;;;;;;;;;;;25.80;53.38;99961.59;1037711;28;712;-67
2022/08/15 03:58:50;;;;;;;;;;;;;;;25.78;53.56;99959.13;1037801;28;693;-67
2022/08/15 03:59:40;;;;;;;;;;;;;;;25.77;53.54;99962.06;1037782;28;701;-67
2022/08/15 04:00:30;;;;;;;;;;;;;;;25.78;53.48;99967.31;1037866;28;618;-67
2022/08/15 04:01:21;;;;;;;;;;;;;;;25.78;53.19;99967.31;1037713;28;668;-67
2022/08/15 04:02:11;;;;;;;;;;;;;;;25.77;53.54;99965.66;1038816;28;661;-67
2022/08/15 04:03:02;;;;;;;;;;;;;;;25.77;53.51;99965.66;1037771;28;626;-67
2022/08/15 04:03:52;;;;;;;;;;;;;;;25.78;53.41;99967.31;1037713;28;653;-67
2022/08/15 04:04:43;;;;;;;;;;;;;;;25.77;53.51;99960.19;1037774;28;610;-66
2022/08/15 04:05:34;;;;;;;;;;;;;;;25.77;53.47;99965.66;1037625;28;1964;-67
2022/08/15 04:06:25;;;;;;;;;;;;;;;25.78;53.50;99967.31;1038252;28;689;-67
2022/08/15 04:07:16;;;;;;;;;;;;;;;25.76;53.67;99969.44;1037725;28;630;-67
2022/08/15 04:08:07;;;;;;;;;;;;;;;25.75;53.62;99970.47;1037570;28;1213;-67
2022/08/15 04:08:57;;;;;;;;;;;;;;;25.75;53.47;99962.28;1037728;28;650;-67
2022/08/15 04:09:48;;;;;;;;;;;;;;;25.76;53.47;99963.13;1037681;28;689;-67
2022/08/15 04:10:38;;;;;;;;;;;;;;;25.74;53.52;99955.16;1037635;28;661;-67
2022/08/15 04:11:30;;;;;;;;;;;;;;;25.75;53.54;99951.38;1037814;28;730;-67
2022/08/15 04:12:20;;;;;;;;;;;;;;;25.75;53.50;99953.28;1037668;28;646;-67
2022/08/15 04:13:11;;;;;;;;;;;;;;;25.75;53.55;99954.09;1037850;28;626;-67
2022/08/15 04:14:01;;;;;;;;;;;;;;;25.76;53.42;99953.06;1037959;28;697;-66
2022/08/15 04:14:51;;;;;;;;;;;;;;;25.73;53.48;99948.03;1038098;28;622;-66
2022/08/15 04:15:42;;;;;;;;;;;;;;;25.75;53.47;99954.09;1037784;28;641;-67
2022/08/15 04:16:32;;;;;;;;;;;;;;;25.74;53.59;99946.97;1039052;28;712;-67
2022/08/15 04:17:23;;;;;;;;;;;;;;;25.74;53.47;99944.25;1037773;28;705;-67
2022/08/15 04:18:14;;;;;;;;;;;;;;;25.74;53.50;99946.97;1038382;28;661;-67
2022/08/15 04:19:04;;;;;;;;;;;;;;;25.76;53.49;99950.31;1037686;28;720;-67
2022/08/15 04:19:55;;;;;;;;;;;;;;;25.75;53.61;99945.09;1037453;28;662;-67
2022/08/15 04:20:45;;;;;;;;;;;;;;;25.73;53.22;99949.91;1037808;28;650;-67
2022/08/15 04:21:36;;;;;;;;;;;;;;;25.75;53.58;99942.34;1037707;28;700;-66
2022/08/15 04:22:26;;;;;;;;;;;;;;;25.74;53.61;99937.94;1037967;28;704;-66
2022/08/15 04:23:17;;;;;;;;;;;;;;;25.71;53.77;99936.50;1038054;28;626;-67
2022/08/15 04:24:07;;;;;;;;;;;;;;;25.72;53.57;99935.44;1037761;28;947;-67
2022/08/15 04:24:57;;;;;;;;;;;;;;;25.74;53.59;99937.94;1037689;28;752;-67
2022/08/15 04:25:48;;;;;;;;;;;;;;;25.71;53.46;99939.22;1037590;28;1895;-66
2022/08/15 04:26:39;;;;;;;;;;;;;;;25.72;53.62;99932.72;1037674;28;689;-66
2022/08/15 04:27:29;;;;;;;;;;;;;;;25.71;53.62;99939.22;1037860;28;662;-67
2022/08/15 04:28:20;;;;;;;;;;;;;;;25.71;53.58;99936.50;1037621;28;642;-67
2022/08/15 04:29:11;;;;;;;;;;;;;;;25.72;53.66;99942.78;1037748;28;716;-67
2022/08/15 04:30:01;;;;;;;;;;;;;;;25.72;53.79;99942.78;1038642;28;708;-67
2022/08/15 04:30:52;;;;;;;;;;;;;;;25.71;53.67;99944.69;1037663;28;698;-67